createdAt,value
2022-12-24T00:00:02.052Z,992.56
2022-12-24T00:05:02.157Z,992.65
2022-12-24T00:10:02.234Z,992.65
2022-12-24T00:15:02.065Z,992.8
2022-12-24T00:20:02.273Z,992.88
2022-12-24T00:25:02.185Z,992.82
2022-12-24T00:30:01.910Z,992.91
2022-12-24T00:35:01.967Z,992.94
2022-12-24T00:40:01.965Z,992.84
2022-12-24T00:45:01.757Z,992.74
2022-12-24T00:50:01.821Z,992.78
2022-12-24T00:55:01.720Z,992.79
2022-12-24T01:00:01.541Z,992.93
2022-12-24T01:05:02.317Z,992.88
2022-12-24T01:10:01.380Z,992.96
2022-12-24T01:15:01.881Z,993.02
2022-12-24T01:20:02.185Z,993.14
2022-12-24T01:25:02.053Z,993.19
2022-12-24T01:30:02.197Z,993.24
2022-12-24T01:35:01.365Z,993.34
2022-12-24T01:40:02.036Z,993.25
2022-12-24T01:45:01.919Z,993.32
2022-12-24T01:50:02.044Z,993.25
2022-12-24T01:55:02.095Z,993.39
2022-12-24T02:00:01.343Z,993.38
2022-12-24T02:05:01.915Z,993.37
2022-12-24T02:10:01.515Z,993.38
2022-12-24T02:15:01.745Z,993.52
2022-12-24T02:20:02.158Z,993.63
2022-12-24T02:25:01.399Z,993.76
2022-12-24T02:30:02.082Z,993.81
2022-12-24T02:35:01.548Z,993.81
2022-12-24T02:40:01.744Z,993.85
2022-12-24T02:45:01.754Z,993.99
2022-12-24T02:50:01.404Z,994.13
2022-12-24T02:55:01.522Z,994.16
2022-12-24T03:00:02.360Z,994.24
2022-12-24T03:05:01.382Z,994.16
2022-12-24T03:10:01.886Z,994.23
2022-12-24T03:15:01.909Z,994.26
2022-12-24T03:20:01.988Z,994.23
2022-12-24T03:25:01.884Z,994.26
2022-12-24T03:30:02.189Z,994.27
2022-12-24T03:35:01.767Z,994.31
2022-12-24T03:40:01.885Z,994.39
2022-12-24T03:45:01.852Z,994.34
2022-12-24T03:50:02.180Z,994.47
2022-12-24T03:55:02.260Z,994.45
2022-12-24T04:00:01.319Z,994.38
2022-12-24T04:05:01.477Z,994.32
2022-12-24T04:10:01.729Z,994.34
2022-12-24T04:15:01.914Z,994.47
2022-12-24T04:20:01.860Z,994.47
2022-12-24T04:25:01.406Z,994.76
2022-12-24T04:30:01.842Z,994.87
2022-12-24T04:35:01.474Z,994.85
2022-12-24T04:40:01.852Z,994.96
2022-12-24T04:45:01.876Z,994.86
2022-12-24T04:50:01.951Z,994.83
2022-12-24T04:55:01.961Z,994.82
2022-12-24T05:00:02.241Z,994.87
2022-12-24T05:05:02.199Z,994.9
2022-12-24T05:10:01.436Z,994.96
2022-12-24T05:15:01.653Z,995.03
2022-12-24T05:20:01.628Z,994.97
2022-12-24T05:25:01.609Z,995
2022-12-24T05:30:01.740Z,995.05
2022-12-24T05:35:01.604Z,995.12
2022-12-24T05:40:01.791Z,995.17
2022-12-24T05:45:02.072Z,995.19
2022-12-24T05:50:01.788Z,995.26
2022-12-24T05:55:01.771Z,995.39
2022-12-24T06:00:01.871Z,995.41
2022-12-24T06:05:01.415Z,995.37
2022-12-24T06:10:01.558Z,995.43
2022-12-24T06:15:01.702Z,995.44
2022-12-24T06:20:01.720Z,995.49
2022-12-24T06:25:01.888Z,995.53
2022-12-24T06:30:01.811Z,995.55
2022-12-24T06:35:02.204Z,995.58
2022-12-24T06:40:02.266Z,995.62
2022-12-24T06:45:07.805Z,995.73
2022-12-24T06:50:01.279Z,995.72
2022-12-24T06:55:01.477Z,995.85
2022-12-24T07:00:01.687Z,995.93
2022-12-24T07:05:01.913Z,996.04
2022-12-24T07:10:02.076Z,996.01
2022-12-24T07:15:02.187Z,995.97
2022-12-24T07:20:02.119Z,996.06
2022-12-24T07:25:01.958Z,996.12
2022-12-24T07:30:01.806Z,996.19
2022-12-24T07:35:01.957Z,996.27
2022-12-24T07:40:02.110Z,996.31
2022-12-24T07:45:02.291Z,996.34
2022-12-24T07:50:01.358Z,996.4
2022-12-24T07:55:01.562Z,996.43
2022-12-24T08:00:01.576Z,996.47
2022-12-24T08:05:01.868Z,996.61
2022-12-24T08:10:02.096Z,996.64
2022-12-24T08:15:01.354Z,996.72
2022-12-24T08:20:01.690Z,996.8
2022-12-24T08:25:01.805Z,996.85
2022-12-24T08:30:01.662Z,996.84
2022-12-24T08:35:02.268Z,996.88
2022-12-24T08:40:01.441Z,996.91
2022-12-24T08:45:02.164Z,996.96
2022-12-24T08:50:01.311Z,997.08
2022-12-24T08:55:01.399Z,997.07
2022-12-24T09:00:01.680Z,997.12
2022-12-24T09:05:02.089Z,997.17
2022-12-24T09:10:02.194Z,997.17
2022-12-24T09:15:04.210Z,997.25
2022-12-24T09:20:02.160Z,997.34
2022-12-24T09:25:02.307Z,997.42
2022-12-24T09:30:02.222Z,997.56
2022-12-24T09:35:02.055Z,997.68
2022-12-24T09:40:01.403Z,997.73
2022-12-24T09:45:01.753Z,997.76
2022-12-24T09:50:01.903Z,997.74
2022-12-24T09:55:01.866Z,997.8
2022-12-24T10:00:01.973Z,997.82
2022-12-24T10:05:01.979Z,997.99
2022-12-24T10:10:02.208Z,998.04
2022-12-24T10:15:02.275Z,998.09
2022-12-24T10:20:02.183Z,998.02
2022-12-24T10:25:02.014Z,998.08
2022-12-24T10:30:02.149Z,998.03
2022-12-24T10:35:02.268Z,998.07
2022-12-24T10:40:01.730Z,998.15
2022-12-24T10:45:01.751Z,998.21
2022-12-24T10:50:01.649Z,998.26
2022-12-24T10:55:01.583Z,998.17
2022-12-24T11:00:01.894Z,998.2
2022-12-24T11:05:02.171Z,998.16
2022-12-24T11:10:01.360Z,998.07
2022-12-24T11:15:01.716Z,997.97
2022-12-24T11:20:02.040Z,998.1
2022-12-24T11:25:02.032Z,998.08
2022-12-24T11:30:06.543Z,997.95
2022-12-24T11:35:02.139Z,997.96
2022-12-24T11:40:02.242Z,998.02
2022-12-24T11:45:01.553Z,998.04
2022-12-24T11:50:17.626Z,998.03
2022-12-24T11:55:02.128Z,998.06
2022-12-24T12:00:01.745Z,998.14
2022-12-24T12:05:01.964Z,998.14
2022-12-24T12:10:01.424Z,998.07
2022-12-24T12:15:01.453Z,998.1
2022-12-24T12:20:01.916Z,998.16
2022-12-24T12:25:02.233Z,998.2
2022-12-24T12:30:01.370Z,998.26
2022-12-24T12:35:01.559Z,998.3
2022-12-24T12:40:02.107Z,998.31
2022-12-24T12:45:02.049Z,998.35
2022-12-24T12:50:01.456Z,998.25
2022-12-24T12:55:01.737Z,998.19
2022-12-24T13:00:01.874Z,998.23
2022-12-24T13:05:02.150Z,998.24
2022-12-24T13:10:01.385Z,998.27
2022-12-24T13:15:01.439Z,998.22
2022-12-24T13:20:01.650Z,998.33
2022-12-24T13:25:01.345Z,998.32
2022-12-24T13:30:09.133Z,998.34
2022-12-24T13:35:01.390Z,998.43
2022-12-24T13:40:01.713Z,998.54
2022-12-24T13:45:01.842Z,998.63
2022-12-24T13:50:01.942Z,998.58
2022-12-24T13:55:01.944Z,998.62
2022-12-24T14:00:01.951Z,998.66
2022-12-24T14:05:02.227Z,998.74
2022-12-24T14:10:01.478Z,998.76
2022-12-24T14:15:01.872Z,998.83
2022-12-24T14:20:01.762Z,998.78
2022-12-24T14:25:01.753Z,998.79
2022-12-24T14:30:02.043Z,998.87
2022-12-24T14:35:01.558Z,998.82
2022-12-24T14:40:01.566Z,998.91
2022-12-24T14:45:01.850Z,998.95
2022-12-24T14:50:01.947Z,998.94
2022-12-24T14:55:02.112Z,999.01
2022-12-24T15:00:01.959Z,999.06
2022-12-24T15:05:02.149Z,999.11
2022-12-24T15:10:01.590Z,999.31
2022-12-24T15:15:01.690Z,999.37
2022-12-24T15:20:02.124Z,999.41
2022-12-24T15:25:02.269Z,999.53
2022-12-24T15:30:01.530Z,999.49
2022-12-24T15:35:01.955Z,999.5
2022-12-24T15:40:02.060Z,999.54
2022-12-24T15:45:01.370Z,999.51
2022-12-24T15:50:01.453Z,999.58
2022-12-24T15:55:01.696Z,999.68
2022-12-24T16:00:01.726Z,999.65
2022-12-24T16:05:01.948Z,999.62
2022-12-24T16:10:02.078Z,999.67
2022-12-24T16:15:01.507Z,999.68
2022-12-24T16:20:02.243Z,999.66
2022-12-24T16:25:02.127Z,999.67
2022-12-24T16:30:02.083Z,999.65
2022-12-24T16:35:01.405Z,999.52
2022-12-24T16:40:01.470Z,999.62
2022-12-24T16:45:01.969Z,999.65
2022-12-24T16:50:01.859Z,999.74
2022-12-24T16:55:01.788Z,999.81
2022-12-24T17:00:02.245Z,999.91
2022-12-24T17:05:01.349Z,999.77
2022-12-24T17:10:01.972Z,999.9
2022-12-24T17:15:02.084Z,999.97
2022-12-24T17:20:01.529Z,1000
2022-12-24T17:25:01.860Z,999.98
2022-12-24T17:30:01.997Z,999.98
2022-12-24T17:40:01.947Z,999.89
2022-12-24T17:45:02.035Z,999.93
2022-12-24T17:50:01.894Z,1000.04
2022-12-24T17:55:01.926Z,1000.09
2022-12-24T18:00:02.071Z,1000.05
2022-12-24T18:05:01.994Z,999.99
2022-12-24T18:10:02.083Z,1000.15
2022-12-24T18:15:01.940Z,1000.23
2022-12-24T18:20:02.116Z,1000.34
2022-12-24T18:25:01.318Z,1000.32
2022-12-24T18:30:01.695Z,1000.34
2022-12-24T18:35:01.785Z,1000.44
2022-12-24T18:40:01.774Z,1000.43
2022-12-24T18:45:01.571Z,1000.38
2022-12-24T18:50:01.755Z,1000.22
2022-12-24T18:55:02.144Z,1000.18
2022-12-24T19:00:02.204Z,1000.04
2022-12-24T19:05:01.447Z,1000.03
2022-12-24T19:10:01.905Z,999.99
2022-12-24T19:15:01.946Z,999.99
2022-12-24T19:20:02.234Z,1000.04
2022-12-24T19:25:02.192Z,1000.2
2022-12-24T19:30:02.089Z,1000.21
2022-12-24T19:35:01.318Z,1000.35
2022-12-24T19:40:01.509Z,1000.35
2022-12-24T19:45:01.687Z,1000.37
2022-12-24T19:50:01.423Z,1000.47
2022-12-24T19:55:01.689Z,1000.48
2022-12-24T20:00:02.121Z,1000.38
2022-12-24T20:05:01.338Z,1000.2
2022-12-24T20:10:01.987Z,1000.38
2022-12-24T20:15:01.891Z,1000.42
2022-12-24T20:20:02.261Z,1000.52
2022-12-24T20:25:02.102Z,1000.48
2022-12-24T20:30:02.205Z,1000.36
2022-12-24T20:35:02.112Z,1000.38
2022-12-24T20:40:02.129Z,1000.3
2022-12-24T20:45:02.125Z,1000.36
2022-12-24T20:50:01.865Z,1000.38
2022-12-24T20:55:01.841Z,1000.34
2022-12-24T21:00:01.802Z,1000.2
2022-12-24T21:05:02.751Z,1000.29
2022-12-24T21:10:01.942Z,1000.45
2022-12-24T21:15:01.817Z,1000.44
2022-12-24T21:20:01.878Z,1000.44
2022-12-24T21:25:01.971Z,1000.48
2022-12-24T21:30:02.074Z,1000.46
2022-12-24T21:35:01.921Z,1000.48
2022-12-24T21:40:01.688Z,1000.52
2022-12-24T21:45:01.736Z,1000.47
2022-12-24T21:50:02.131Z,1000.48
2022-12-24T21:55:02.080Z,1000.48
2022-12-24T22:00:02.129Z,1000.63
2022-12-24T22:05:02.158Z,1000.5
2022-12-24T22:10:02.170Z,1000.59
2022-12-24T22:15:02.157Z,1000.65
2022-12-24T22:20:02.208Z,1000.57
2022-12-24T22:25:02.016Z,1000.49
2022-12-24T22:30:01.383Z,1000.42
2022-12-24T22:35:01.605Z,1000.38
2022-12-24T22:40:01.470Z,1000.39
2022-12-24T22:45:01.611Z,1000.42
2022-12-24T22:50:02.137Z,1000.27
2022-12-24T22:55:01.986Z,1000.35
2022-12-24T23:00:01.718Z,1000.29
2022-12-24T23:05:01.800Z,1000.27
2022-12-24T23:10:02.178Z,1000.16
2022-12-24T23:15:01.934Z,1000.03
2022-12-24T23:20:01.425Z,999.88
2022-12-24T23:25:01.601Z,999.78
2022-12-24T23:30:01.691Z,999.81
2022-12-24T23:35:01.826Z,999.57
2022-12-24T23:40:01.848Z,999.58
2022-12-24T23:45:01.652Z,999.55
2022-12-24T23:50:01.800Z,999.6
2022-12-24T23:55:01.678Z,999.7
